This is the latest recevied weather packets stored in our database for station/object EA1FLU-10. If no packets are shown the sender has not sent any weather packets the latest 10 day(s).
| Time | Temp. | Humidity | Pressure | Rain* | Wind** | Luminosity | Snow |
|---|---|---|---|---|---|---|---|
| 1777392925 | 23.33° C | 45% | 1016.8 hPa | - | - | - | - |
| 1777391125 | 23.89° C | 43% | 1016.2 hPa | - | - | - | - |
| 1777389325 | 24.44° C | 41% | 1016.8 hPa | - | - | - | - |
| 1777387525 | 25.56° C | 40% | 1016.7 hPa | - | - | - | - |
| 1777385725 | 27.22° C | 40% | 1016.2 hPa | - | - | - | - |
| 1777383925 | 27.22° C | 40% | 1016 hPa | - | - | - | - |
| 1777382125 | 27.22° C | 39% | 1016.2 hPa | - | - | - | - |
| 1777380325 | 27.22° C | 39% | 1016.4 hPa | - | - | - | - |
| 1777378525 | 27.22° C | 38% | 1016.9 hPa | - | - | - | - |
| 1777376725 | 26.67° C | 39% | 1017.6 hPa | - | - | - | - |
| 1777374924 | 26.67° C | 40% | 1018.1 hPa | - | - | - | - |
| 1777373125 | 26.11° C | 40% | 1018.4 hPa | - | - | - | - |
| 1777371329 | 25.56° C | 41% | 1018.8 hPa | - | - | - | - |
| 1777369525 | 24.44° C | 42% | 1018.7 hPa | - | - | - | - |
| 1777367725 | 23.33° C | 45% | 1018.8 hPa | - | - | - | - |
| 1777365925 | 21.67° C | 50% | 1019 hPa | - | - | - | - |
| 1777364125 | 20.56° C | 51% | 1019 hPa | - | - | - | - |
| 1777362325 | 19.44° C | 51% | 1019.2 hPa | - | - | - | - |
| 1777360522 | 19.44° C | 53% | 1019.1 hPa | - | - | - | - |
| 1777358722 | 18.89° C | 54% | 1019.2 hPa | - | - | - | - |
| 1777356922 | 17.78° C | 55% | 1019.2 hPa | - | - | - | - |
| 1777355122 | 17.78° C | 56% | 1019.3 hPa | - | - | - | - |
| 1777353322 | 16.11° C | 55% | 1019.3 hPa | - | - | - | - |
| 1777351522 | 16.11° C | 55% | 1019.3 hPa | - | - | - | - |
| 1777349722 | 16.67° C | 54% | 1019.4 hPa | - | - | - | - |
* Rain since midnight (hover to see other rain measurements)
** Current wind speed in m/s (hover to see current wind gust speed)